Welcome to Northern Hawkes Bay. New Zealand.
PWS Header
      nz Flag



Hit Counter


W3C Valid W3C Valid logo


    Wairoa

Select any of the Stations below to visit their websites.










Historic Data from Weather Underground
Select the location of interest below. Wairoa is the default. Please have patience, this Data is slow to load in.
Northern Hawkes Bay Historical Data
Daily Summary for October 17, 2017 Units:  Metric    English   Both
« Previous Day
Next Day »
Daily Weekly Monthly Yearly Custom
  High: Low: Average:
Temperature: 20.9 °C 9.5 °C 14.8 °C
Dew Point: 12.5 °C 7.6 °C 10.5 °C
Humidity: 99% 45% 78%
Wind Speed: 13.4km/h 0.0km/h 3.1km/h
Wind Gust: 19.5km/h - -
Wind- - SSW
Pressure: 1019.2 hPa 1015.1 hPa -
Precipitation: 0.0 mm    
Historical Graphs
 
 
Tabular Data for October 17, 2017
Time Temperature Dew Point Pressure Wind Wind Speed Wind Gust Humidity Rainfall Rate (Hourly) solar
00:02 13.9 °C 12.3 °C 1018.8 hPa Calm   7.2 km/h 90% 0.0 mm 0 W/m2
00:07 13.9 °C 12.3 °C 1018.8 hPa Calm   6.1 km/h 90% 0.0 mm 0 W/m2
00:12 13.9 °C 12.3 °C 1018.8 hPa Calm   6.1 km/h 90% 0.0 mm 0 W/m2
00:17 13.9 °C 12.3 °C 1018.8 hPa West 2.6 km/h 6.1 km/h 90% 0.0 mm 0 W/m2
00:22 13.9 °C 12.4 °C 1019.2 hPa West 1.1 km/h 9.7 km/h 91% 0.0 mm 0 W/m2
00:27 13.9 °C 12.4 °C 1019.2 hPa West 2.6 km/h 9.7 km/h 91% 0.0 mm 0 W/m2
00:32 13.9 °C 12.4 °C 1018.8 hPa West 5.0 km/h 7.2 km/h 91% 0.0 mm 0 W/m2
00:37 13.8 °C 12.2 °C 1019.2 hPa WSW 1.1 km/h 9.7 km/h 90% 0.0 mm 0 W/m2
00:42 13.8 °C 12.2 °C 1019.2 hPa WSW 6.1 km/h 12.2 km/h 90% 0.0 mm 0 W/m2
00:47 13.8 °C 12.0 °C 1018.8 hPa SW 6.1 km/h 12.2 km/h 89% 0.0 mm 0 W/m2
00:52 13.8 °C 12.0 °C 1018.8 hPa SW 6.1 km/h 12.2 km/h 89% 0.0 mm 0 W/m2
00:57 13.8 °C 12.2 °C 1018.8 hPa WSW 7.2 km/h 13.4 km/h 90% 0.0 mm 0 W/m2
01:03 13.8 °C 12.2 °C 1018.8 hPa SW 8.7 km/h 12.2 km/h 90% 0.0 mm 0 W/m2
01:08 13.6 °C 12.3 °C 1018.8 hPa SW 7.2 km/h 12.2 km/h 92% 0.0 mm 0 W/m2
01:13 13.6 °C 12.3 °C 1018.8 hPa SW 6.1 km/h 14.8 km/h 92% 0.0 mm 0 W/m2
01:18 13.5 °C 12.2 °C 1018.8 hPa SW 6.1 km/h 14.8 km/h 92% 0.0 mm 0 W/m2
01:23 13.5 °C 12.4 °C 1018.5 hPa WSW 5.0 km/h 9.7 km/h 93% 0.0 mm 0 W/m2
01:28 13.4 °C 12.4 °C 1018.8 hPa WSW 3.5 km/h 9.7 km/h 94% 0.0 mm 0 W/m2
01:33 13.3 °C 12.5 °C 1018.5 hPa WSW 6.1 km/h 11.1 km/h 95% 0.0 mm 0 W/m2
01:38 13.3 °C 12.5 °C 1018.5 hPa WSW 6.1 km/h 11.1 km/h 95% 0.0 mm 0 W/m2
01:43 13.2 °C 12.4 °C 1018.8 hPa WSW 3.5 km/h 11.1 km/h 95% 0.0 mm 0 W/m2
01:48 13.2 °C 12.4 °C 1018.5 hPa WSW 3.5 km/h 11.1 km/h 95% 0.0 mm 0 W/m2
01:53 13.1 °C 12.3 °C 1018.5 hPa WSW 3.5 km/h 9.7 km/h 95% 0.0 mm 0 W/m2
01:58 13.0 °C 12.2 °C 1018.2 hPa SW 5.0 km/h 9.7 km/h 95% 0.0 mm 0 W/m2
02:03 13.0 °C 12.2 °C 1018.2 hPa SW 3.5 km/h 9.7 km/h 95% 0.0 mm 0 W/m2
02:08 12.9 °C 12.1 °C 1018.2 hPa WSW 2.6 km/h 8.7 km/h 95% 0.0 mm 0 W/m2
02:13 12.9 °C 12.3 °C 1018.2 hPa WSW 3.5 km/h 8.7 km/h 96% 0.0 mm 0 W/m2
02:18 12.9 °C 12.3 °C 1018.2 hPa Calm   7.2 km/h 96% 0.0 mm 0 W/m2
02:23 12.8 °C 12.2 °C 1018.2 hPa WSW 1.1 km/h 7.2 km/h 96% 0.0 mm 0 W/m2
02:28 12.8 °C 12.2 °C 1018.2 hPa WSW 1.1 km/h 3.5 km/h 96% 0.0 mm 0 W/m2
02:33 12.8 °C 12.2 °C 1018.2 hPa Calm   3.5 km/h 96% 0.0 mm 0 W/m2
02:38 12.8 °C 12.2 °C 1018.2 hPa Calm   3.5 km/h 96% 0.0 mm 0 W/m2
02:43 12.7 °C 12.1 °C 1018.2 hPa Calm   2.6 km/h 96% 0.0 mm 0 W/m2
02:48 12.7 °C 12.1 °C 1018.2 hPa WNW 1.1 km/h 2.6 km/h 96% 0.0 mm 0 W/m2
02:53 12.7 °C 12.1 °C 1018.2 hPa Calm   2.6 km/h 96% 0.0 mm 0 W/m2
02:58 12.7 °C 12.1 °C 1017.8 hPa Calm   2.6 km/h 96% 0.0 mm 0 W/m2
03:03 12.7 °C 12.1 °C 1017.8 hPa Calm   2.6 km/h 96% 0.0 mm 0 W/m2
03:08 12.7 °C 12.1 °C 1017.8 hPa NNW 1.1 km/h 2.6 km/h 96% 0.0 mm 0 W/m2
03:13 12.6 °C 12.0 °C 1017.8 hPa Calm   5.0 km/h 96% 0.0 mm 0 W/m2
03:18 12.6 °C 12.0 °C 1017.8 hPa NNW 1.1 km/h 5.0 km/h 96% 0.0 mm 0 W/m2
03:23 12.6 °C 12.0 °C 1017.8 hPa NW 1.1 km/h 3.5 km/h 96% 0.0 mm 0 W/m2
03:28 12.5 °C 11.7 °C 1017.8 hPa Calm   3.5 km/h 95% 0.0 mm 0 W/m2
03:33 12.4 °C 11.8 °C 1017.8 hPa Calm   2.6 km/h 96% 0.0 mm 0 W/m2
03:39 12.4 °C 11.8 °C 1017.8 hPa Calm   2.6 km/h 96% 0.0 mm 0 W/m2
03:44 12.3 °C 11.7 °C 1017.8 hPa Calm   1.1 km/h 96% 0.0 mm 0 W/m2
03:49 12.3 °C 11.7 °C 1017.5 hPa NW 1.1 km/h 3.5 km/h 96% 0.0 mm 0 W/m2
03:54 12.4 °C 11.8 °C 1017.8 hPa NW 1.1 km/h 3.5 km/h 96% 0.0 mm 0 W/m2
03:59 12.4 °C 11.8 °C 1017.8 hPa NW 1.1 km/h 3.5 km/h 96% 0.0 mm 0 W/m2
04:04 12.4 °C 11.8 °C 1017.5 hPa NW 1.1 km/h 3.5 km/h 96% 0.0 mm 0 W/m2
04:09 12.4 °C 11.8 °C 1017.8 hPa Calm   3.5 km/h 96% 0.0 mm 0 W/m2
04:14 12.3 °C 11.7 °C 1017.8 hPa Calm   3.5 km/h 96% 0.0 mm 0 W/m2
04:19 12.3 °C 11.7 °C 1017.8 hPa West 1.1 km/h 3.5 km/h 96% 0.0 mm 0 W/m2
04:24 12.3 °C 11.7 °C 1017.5 hPa Calm   3.5 km/h 96% 0.0 mm 0 W/m2
04:29 12.5 °C 11.9 °C 1017.5 hPa WSW 3.5 km/h 8.7 km/h 96% 0.0 mm 0 W/m2
04:34 12.6 °C 12.2 °C 1017.8 hPa WSW 6.1 km/h 11.1 km/h 97% 0.0 mm 0 W/m2
04:39 12.6 °C 12.2 °C 1017.8 hPa WSW 5.0 km/h 11.1 km/h 97% 0.0 mm 0 W/m2
04:44 12.7 °C 12.2 °C 1017.8 hPa WSW 3.5 km/h 11.1 km/h 97% 0.0 mm 0 W/m2
04:49 12.7 °C 12.2 °C 1017.8 hPa SW 8.7 km/h 14.8 km/h 97% 0.0 mm 0 W/m2
04:54 12.7 °C 12.1 °C 1017.8 hPa SSW 6.1 km/h 14.8 km/h 96% 0.0 mm 0 W/m2
04:59 12.7 °C 12.1 °C 1017.8 hPa SSW 8.7 km/h 13.4 km/h 96% 0.0 mm 0 W/m2
05:04 12.7 °C 12.1 °C 1017.8 hPa SW 8.7 km/h 17.2 km/h 96% 0.0 mm 0 W/m2
05:09 12.7 °C 12.1 °C 1018.2 hPa SW 9.7 km/h 17.2 km/h 96% 0.0 mm 0 W/m2
05:14 12.7 °C 12.1 °C 1017.8 hPa SW 8.7 km/h 15.8 km/h 96% 0.0 mm 0 W/m2
05:19 12.7 °C 11.9 °C 1017.8 hPa SW 13.4 km/h 19.5 km/h 95% 0.0 mm 0 W/m2
05:24 12.7 °C 11.9 °C 1017.8 hPa SW 9.7 km/h 19.5 km/h 95% 0.0 mm 0 W/m2
05:29 12.7 °C 11.8 °C 1017.8 hPa SW 8.7 km/h 19.5 km/h 94% 0.0 mm 0 W/m2
05:34 12.7 °C 11.8 °C 1017.8 hPa SSW 11.1 km/h 18.3 km/h 94% 0.0 mm 0 W/m2
05:39 12.7 °C 11.8 °C 1017.8 hPa SSW 8.7 km/h 17.2 km/h 94% 0.0 mm 0 W/m2
05:44 12.7 °C 11.8 °C 1017.8 hPa SSW 7.2 km/h 17.2 km/h 94% 0.0 mm 0 W/m2
05:49 12.7 °C 11.8 °C 1017.8 hPa SSW 9.7 km/h 17.2 km/h 94% 0.0 mm 0 W/m2
05:54 12.7 °C 11.6 °C 1017.8 hPa SSW 11.1 km/h 17.2 km/h 93% 0.0 mm 0 W/m2
05:59 12.7 °C 11.6 °C 1017.8 hPa SW 5.0 km/h 17.2 km/h 93% 0.0 mm 0 W/m2
06:04 12.7 °C 11.6 °C 1017.8 hPa SW 6.1 km/h 17.2 km/h 93% 0.0 mm 0 W/m2
06:09 12.6 °C 11.5 °C 1017.8 hPa SSW 5.0 km/h 14.8 km/h 93% 0.0 mm 0 W/m2
06:14 12.6 °C 11.5 °C 1017.8 hPa SSW 8.7 km/h 14.8 km/h 93% 0.0 mm 0 W/m2
06:19 12.5 °C 11.6 °C 1017.8 hPa SW 7.2 km/h 15.8 km/h 94% 0.0 mm 0 W/m2
06:24 12.5 °C 11.6 °C 1017.8 hPa SW 6.1 km/h 15.8 km/h 94% 0.0 mm 0 W/m2
06:29 12.5 °C 11.6 °C 1017.8 hPa SW 6.1 km/h 12.2 km/h 94% 0.0 mm 0 W/m2
06:34 12.5 °C 11.6 °C 1017.5 hPa SW 6.1 km/h 12.2 km/h 94% 0.0 mm 0 W/m2
06:40 12.4 °C 11.3 °C 1017.8 hPa SW 7.2 km/h 12.2 km/h 93% 0.0 mm 2 W/m2
06:45 12.4 °C 11.2 °C 1017.8 hPa SSW 3.5 km/h 12.2 km/h 92% 0.0 mm 3 W/m2
06:50 12.4 °C 11.2 °C 1017.8 hPa SSW 7.2 km/h 13.4 km/h 92% 0.0 mm 5 W/m2
06:55 12.5 °C 11.2 °C 1017.8 hPa SW 8.7 km/h 13.4 km/h 92% 0.0 mm 7 W/m2
07:00 12.5 °C 11.4 °C 1018.2 hPa SW 11.1 km/h 17.2 km/h 93% 0.0 mm 11 W/m2
07:05 12.5 °C 11.4 °C 1018.2 hPa WSW 9.7 km/h 17.2 km/h 93% 0.0 mm 16 W/m2
07:10 12.4 °C 11.4 °C 1017.8 hPa SW 7.2 km/h 17.2 km/h 94% 0.0 mm 21 W/m2
07:15 12.3 °C 11.5 °C 1017.8 hPa SW 2.6 km/h 14.8 km/h 95% 0.0 mm 26 W/m2
07:20 12.4 °C 11.6 °C 1017.8 hPa SW 6.1 km/h 14.8 km/h 95% 0.0 mm 30 W/m2
07:25 12.3 °C 11.5 °C 1017.8 hPa SW 6.1 km/h 11.1 km/h 95% 0.0 mm 34 W/m2
07:30 12.3 °C 11.4 °C 1018.2 hPa SW 5.0 km/h 11.1 km/h 94% 0.0 mm 38 W/m2
07:35 12.4 °C 11.3 °C 1017.8 hPa SW 5.0 km/h 12.2 km/h 93% 0.0 mm 42 W/m2
07:40 12.6 °C 11.5 °C 1017.8 hPa Calm   12.2 km/h 93% 0.0 mm 63 W/m2
07:45 12.7 °C 11.6 °C 1018.2 hPa West 3.5 km/h 7.2 km/h 93% 0.0 mm 65 W/m2
07:50 12.7 °C 11.4 °C 1018.2 hPa WSW 2.6 km/h 11.1 km/h 92% 0.0 mm 75 W/m2
07:55 12.8 °C 11.6 °C 1018.2 hPa WSW 6.1 km/h 11.1 km/h 92% 0.0 mm 85 W/m2
08:00 12.8 °C 11.4 °C 1018.2 hPa WSW 5.0 km/h 11.1 km/h 91% 0.0 mm 92 W/m2
08:05 12.9 °C 11.6 °C 1018.2 hPa WSW 5.0 km/h 11.1 km/h 92% 0.0 mm 90 W/m2
08:10 12.9 °C 11.4 °C 1018.2 hPa West 3.5 km/h 12.2 km/h 91% 0.0 mm 97 W/m2
08:15 13.0 °C 11.4 °C 1018.2 hPa West 3.5 km/h 12.2 km/h 90% 0.0 mm 106 W/m2
08:20 13.0 °C 11.2 °C 1018.2 hPa West 3.5 km/h 9.7 km/h 89% 0.0 mm 112 W/m2
08:25 13.2 °C 11.4 °C 1018.2 hPa WSW 8.7 km/h 11.1 km/h 89% 0.0 mm 133 W/m2
08:30 13.3 °C 11.3 °C 1018.2 hPa SW 5.0 km/h 11.1 km/h 88% 0.0 mm 155 W/m2
08:36 13.3 °C 11.2 °C 1018.5 hPa SW 5.0 km/h 11.1 km/h 87% 0.0 mm 183 W/m2
08:41 13.5 °C 11.2 °C 1018.2 hPa SW 5.0 km/h 11.1 km/h 86% 0.0 mm 195 W/m2
08:46 13.8 °C 11.3 °C 1018.2 hPa SW 2.6 km/h 11.1 km/h 85% 0.0 mm 158 W/m2
08:51 14.0 °C 11.3 °C 1018.2 hPa WSW 6.1 km/h 11.1 km/h 84% 0.0 mm 186 W/m2
08:56 14.0 °C 11.2 °C 1018.2 hPa WSW 5.0 km/h 11.1 km/h 83% 0.0 mm 203 W/m2
09:01 14.0 °C 10.6 °C 1018.2 hPa SW 1.1 km/h 9.7 km/h 80% 0.0 mm 208 W/m2
09:06 14.3 °C 11.3 °C 1018.2 hPa SW 6.1 km/h 9.7 km/h 82% 0.0 mm 201 W/m2
09:11 14.1 °C 10.7 °C 1018.2 hPa SSW 5.0 km/h 8.7 km/h 80% 0.0 mm 195 W/m2
09:16 14.0 °C 10.4 °C 1018.2 hPa SSW 6.1 km/h 8.7 km/h 79% 0.0 mm 221 W/m2
09:21 14.5 °C 11.1 °C 1018.2 hPa SW 7.2 km/h 8.7 km/h 80% 0.0 mm 218 W/m2
09:26 14.4 °C 11.0 °C 1018.5 hPa SW 5.0 km/h 12.2 km/h 80% 0.0 mm 233 W/m2
09:31 14.4 °C 10.8 °C 1018.5 hPa SSW 8.7 km/h 12.2 km/h 79% 0.0 mm 224 W/m2
09:36 14.1 °C 10.5 °C 1018.5 hPa South 5.0 km/h 12.2 km/h 79% 0.0 mm 210 W/m2
09:41 14.1 °C 10.7 °C 1018.5 hPa SSW 3.5 km/h 12.2 km/h 80% 0.0 mm 198 W/m2
09:46 14.1 °C 10.5 °C 1018.5 hPa SW 3.5 km/h 12.2 km/h 79% 0.0 mm 207 W/m2
09:51 13.9 °C 10.5 °C 1018.5 hPa SW 5.0 km/h 12.2 km/h 80% 0.0 mm 240 W/m2
09:56 14.1 °C 10.3 °C 1018.2 hPa SW 5.0 km/h 12.2 km/h 78% 0.0 mm 297 W/m2
10:01 14.6 °C 10.8 °C 1018.2 hPa WSW 1.1 km/h 8.7 km/h 78% 0.0 mm 273 W/m2
10:06 15.2 °C 11.0 °C 1018.2 hPa WSW 3.5 km/h 8.7 km/h 76% 0.0 mm 376 W/m2
10:11 15.7 °C 11.1 °C 1018.2 hPa South 1.1 km/h 8.7 km/h 74% 0.0 mm 343 W/m2
10:16 15.7 °C 10.7 °C 1018.2 hPa South 2.6 km/h 8.7 km/h 72% 0.0 mm 317 W/m2
10:21 15.7 °C 10.7 °C 1018.2 hPa South 7.2 km/h 11.1 km/h 72% 0.0 mm 303 W/m2
10:26 15.2 °C 10.4 °C 1018.5 hPa South 6.1 km/h 11.1 km/h 73% 0.0 mm 366 W/m2
10:31 15.2 °C 10.4 °C 1018.2 hPa SSW 1.1 km/h 11.1 km/h 73% 0.0 mm 390 W/m2
10:36 15.9 °C 11.3 °C 1018.2 hPa SSW 2.6 km/h 9.7 km/h 74% 0.0 mm 295 W/m2
10:41 15.9 °C 10.9 °C 1017.8 hPa South 1.1 km/h 9.7 km/h 72% 0.0 mm 356 W/m2
10:46 16.1 °C 10.4 °C 1018.2 hPa SE 1.1 km/h 8.7 km/h 69% 0.0 mm 478 W/m2
10:51 16.5 °C 10.8 °C 1018.2 hPa ESE 1.1 km/h 7.2 km/h 69% 0.0 mm 481 W/m2
10:56 16.5 °C 10.3 °C 1018.2 hPa ESE 1.1 km/h 11.1 km/h 67% 0.0 mm 564 W/m2
11:01 16.6 °C 10.4 °C 1017.8 hPa SE 5.0 km/h 11.1 km/h 67% 0.0 mm 578 W/m2
11:06 16.0 °C 9.9 °C 1017.8 hPa ESE 3.5 km/h 7.2 km/h 67% 0.0 mm 601 W/m2
11:11 16.3 °C 10.6 °C 1017.5 hPa East 2.6 km/h 8.7 km/h 69% 0.0 mm 668 W/m2
11:16 16.8 °C 10.7 °C 1017.8 hPa ESE 6.1 km/h 8.7 km/h 67% 0.0 mm 739 W/m2
11:21 16.6 °C 10.4 °C 1017.5 hPa ESE 1.1 km/h 8.7 km/h 67% 0.0 mm 745 W/m2
11:26 16.4 °C 10.3 °C 1017.8 hPa SE 2.6 km/h 8.7 km/h 67% 0.0 mm 168 W/m2
11:31 15.7 °C 10.7 °C 1017.5 hPa South 5.0 km/h 12.2 km/h 72% 0.0 mm 523 W/m2
11:36 15.2 °C 10.2 °C 1017.5 hPa South 2.6 km/h 12.2 km/h 72% 0.0 mm 344 W/m2
11:41 15.8 °C 11.0 °C 1017.5 hPa South 5.0 km/h 11.1 km/h 73% 0.0 mm 658 W/m2
11:46 16.5 °C 11.4 °C 1017.2 hPa South 5.0 km/h 8.7 km/h 72% 0.0 mm 678 W/m2
11:51 16.6 °C 10.7 °C 1016.8 hPa Calm   11.1 km/h 68% 0.0 mm 329 W/m2
11:56 16.6 °C 10.9 °C 1016.8 hPa SE 5.0 km/h 11.1 km/h 69% 0.0 mm 694 W/m2
12:01 16.9 °C 10.7 °C 1016.8 hPa ESE 2.6 km/h 9.7 km/h 67% 0.0 mm 708 W/m2
12:06 17.3 °C 10.7 °C 1016.8 hPa Calm   7.2 km/h 65% 0.0 mm 720 W/m2
12:11 17.3 °C 10.4 °C 1016.8 hPa Calm   7.2 km/h 64% 0.0 mm 733 W/m2
12:16 17.7 °C 10.8 °C 1016.8 hPa ESE 5.0 km/h 8.7 km/h 64% 0.0 mm 761 W/m2
12:21 17.9 °C 10.5 °C 1016.8 hPa SE 1.1 km/h 8.7 km/h 62% 0.0 mm 761 W/m2
12:26 18.1 °C 10.7 °C 1016.8 hPa SE 1.1 km/h 8.7 km/h 62% 0.0 mm 785 W/m2
12:31 18.2 °C 11.3 °C 1016.8 hPa SE 5.0 km/h 11.1 km/h 64% 0.0 mm 779 W/m2
12:36 17.5 °C 10.8 °C 1016.8 hPa SSE 8.7 km/h 18.3 km/h 65% 0.0 mm 769 W/m2
12:55 18.0 °C 11.3 °C 1016.5 hPa SE 2.6 km/h 11.1 km/h 65% 0.0 mm 765 W/m2
13:00 17.9 °C 10.8 °C 1016.5 hPa SE 2.6 km/h 11.1 km/h 63% 0.0 mm 759 W/m2
13:05 17.7 °C 10.1 °C 1016.5 hPa SE 6.1 km/h 11.1 km/h 61% 0.0 mm 756 W/m2
13:10 17.9 °C 9.3 °C 1016.5 hPa SE 5.0 km/h 8.7 km/h 57% 0.0 mm 757 W/m2
13:16 17.6 °C 11.2 °C 1016.5 hPa SE 5.0 km/h 15.8 km/h 66% 0.0 mm 744 W/m2
13:21 17.7 °C 10.6 °C 1016.5 hPa ESE 3.5 km/h 15.8 km/h 63% 0.0 mm 743 W/m2
13:26 17.9 °C 10.3 °C 1016.5 hPa SE 6.1 km/h 9.7 km/h 61% 0.0 mm 738 W/m2
13:31 18.1 °C 10.2 °C 1016.5 hPa SE 5.0 km/h 15.8 km/h 60% 0.0 mm 737 W/m2
13:36 17.8 °C 9.7 °C 1016.5 hPa SE 3.5 km/h 15.8 km/h 59% 0.0 mm 725 W/m2
13:41 18.0 °C 10.8 °C 1016.5 hPa ESE 7.2 km/h 12.2 km/h 63% 0.0 mm 719 W/m2
13:46 17.6 °C 9.2 °C 1016.1 hPa ESE 6.1 km/h 12.2 km/h 58% 0.0 mm 704 W/m2
13:51 17.6 °C 8.4 °C 1016.1 hPa ESE 3.5 km/h 12.2 km/h 55% 0.0 mm 703 W/m2
13:56 17.8 °C 8.4 °C 1016.5 hPa ESE 2.6 km/h 11.1 km/h 54% 0.0 mm 675 W/m2
14:01 18.0 °C 8.8 °C 1016.5 hPa SE 5.0 km/h 9.7 km/h 55% 0.0 mm 444 W/m2
14:06 17.8 °C 8.1 °C 1016.1 hPa SSE 2.6 km/h 12.2 km/h 53% 0.0 mm 141 W/m2
14:11 18.0 °C 8.8 °C 1016.1 hPa SSE 1.1 km/h 13.4 km/h 55% 0.0 mm 669 W/m2
14:16 18.7 °C 8.9 °C 1016.1 hPa SSE 6.1 km/h 13.4 km/h 53% 0.0 mm 661 W/m2
14:21 18.5 °C 9.3 °C 1016.1 hPa SE 5.0 km/h 11.1 km/h 55% 0.0 mm 498 W/m2
14:26 18.6 °C 9.7 °C 1015.8 hPa SE 5.0 km/h 13.4 km/h 56% 0.0 mm 635 W/m2
14:31 18.8 °C 10.4 °C 1016.1 hPa SSE 2.6 km/h 13.4 km/h 58% 0.0 mm 535 W/m2
14:36 19.0 °C 9.8 °C 1015.8 hPa SSE 7.2 km/h 11.1 km/h 55% 0.0 mm 591 W/m2
14:41 19.1 °C 9.3 °C 1015.8 hPa SSE 5.0 km/h 9.7 km/h 53% 0.0 mm 595 W/m2
14:46 19.5 °C 10.2 °C 1015.8 hPa Calm   9.7 km/h 55% 0.0 mm 591 W/m2
14:51 20.2 °C 10.6 °C 1015.8 hPa SSE 2.6 km/h 9.7 km/h 54% 0.0 mm 278 W/m2
14:52 20.2 °C 10.6 °C 1015.8 hPa SSE 5.0 km/h 7.2 km/h 54% 0.0 mm 125 W/m2
14:57 20.2 °C 9.4 °C 1015.8 hPa SSE 1.1 km/h 8.7 km/h 50% 0.0 mm 566 W/m2
15:02 20.6 °C 9.5 °C 1015.8 hPa SSE 3.5 km/h 8.7 km/h 49% 0.0 mm 556 W/m2
15:07 20.2 °C 8.8 °C 1015.8 hPa SSE 2.6 km/h 9.7 km/h 48% 0.0 mm 544 W/m2
15:12 20.5 °C 9.1 °C 1015.8 hPa SSE 5.0 km/h 9.7 km/h 48% 0.0 mm 526 W/m2
15:17 20.2 °C 9.4 °C 1015.5 hPa Calm   11.1 km/h 50% 0.0 mm 518 W/m2
15:22 20.5 °C 9.4 °C 1015.5 hPa Calm   11.1 km/h 49% 0.0 mm 406 W/m2
15:27 20.9 °C 10.1 °C 1015.5 hPa SE 9.7 km/h 13.4 km/h 50% 0.0 mm 497 W/m2
15:32 20.6 °C 9.8 °C 1015.5 hPa SE 3.5 km/h 13.4 km/h 50% 0.0 mm 474 W/m2
15:37 20.1 °C 8.4 °C 1015.5 hPa SE 6.1 km/h 13.4 km/h 47% 0.0 mm 372 W/m2
15:42 19.8 °C 8.8 °C 1015.5 hPa ESE 1.1 km/h 9.7 km/h 49% 0.0 mm 456 W/m2
15:47 20.1 °C 8.8 °C 1015.5 hPa ESE 3.5 km/h 9.7 km/h 48% 0.0 mm 447 W/m2
16:05 20.5 °C 8.8 °C 1015.5 hPa SSE 3.5 km/h 9.7 km/h 47% 0.0 mm 411 W/m2
16:10 20.3 °C 9.8 °C 1015.5 hPa SE 1.1 km/h 9.7 km/h 51% 0.0 mm 400 W/m2
16:15 20.6 °C 9.5 °C 1015.5 hPa SE 2.6 km/h 9.7 km/h 49% 0.0 mm 84 W/m2
16:21 19.8 °C 8.8 °C 1015.1 hPa ESE 2.6 km/h 13.4 km/h 49% 0.0 mm 375 W/m2
16:26 20.0 °C 9.8 °C 1015.5 hPa ESE 2.6 km/h 13.4 km/h 52% 0.0 mm 367 W/m2
16:31 20.2 °C 9.4 °C 1015.5 hPa SE 3.5 km/h 11.1 km/h 50% 0.0 mm 354 W/m2
16:36 20.2 °C 8.8 °C 1015.5 hPa SE 6.1 km/h 11.1 km/h 48% 0.0 mm 342 W/m2
16:38 20.0 °C 8.9 °C 1015.5 hPa SSE 1.1 km/h 11.1 km/h 49% 0.0 mm 336 W/m2
16:41 20.1 °C 9.9 °C 1015.5 hPa SSE 1.1 km/h 9.7 km/h 52% 0.0 mm 330 W/m2
16:46 20.6 °C 9.8 °C 1015.5 hPa SE 2.6 km/h 9.7 km/h 50% 0.0 mm 319 W/m2
16:51 20.6 °C 9.2 °C 1015.8 hPa SE 1.1 km/h 9.7 km/h 48% 0.0 mm 307 W/m2
16:56 20.6 °C 9.8 °C 1015.8 hPa SE 3.5 km/h 9.7 km/h 50% 0.0 mm 296 W/m2
16:57 20.5 °C 10.1 °C 1015.8 hPa SE 1.1 km/h 9.7 km/h 51% 0.0 mm 294 W/m2
17:02 20.5 °C 10.1 °C 1016.1 hPa SE 2.6 km/h 8.7 km/h 51% 0.0 mm 281 W/m2
17:07 20.1 °C 9.7 °C 1015.8 hPa ESE 8.7 km/h 9.7 km/h 51% 0.0 mm 269 W/m2
17:12 19.8 °C 9.7 °C 1016.1 hPa ESE 1.1 km/h 9.7 km/h 52% 0.0 mm 256 W/m2
17:18 19.9 °C 10.3 °C 1016.1 hPa SE 3.5 km/h 11.1 km/h 54% 0.0 mm 242 W/m2
17:24 19.7 °C 9.0 °C 1016.1 hPa ESE 1.1 km/h 11.1 km/h 50% 0.0 mm 227 W/m2
17:29 20.1 °C 9.4 °C 1016.1 hPa ESE 1.1 km/h 7.2 km/h 50% 0.0 mm 215 W/m2
17:34 20.3 °C 8.9 °C 1016.5 hPa SE 1.1 km/h 5.0 km/h 48% 0.0 mm 202 W/m2
17:39 20.3 °C 8.6 °C 1016.1 hPa Calm   5.0 km/h 47% 0.0 mm 190 W/m2
17:45 20.5 °C 8.5 °C 1016.1 hPa Calm   6.1 km/h 46% 0.0 mm 176 W/m2
17:50 20.5 °C 8.2 °C 1016.5 hPa Calm   7.2 km/h 45% 0.0 mm 164 W/m2
17:55 20.0 °C 8.1 °C 1016.1 hPa Calm   7.2 km/h 46% 0.0 mm 97 W/m2
18:00 18.8 °C 8.2 °C 1016.5 hPa Calm   6.1 km/h 50% 0.0 mm 57 W/m2
18:05 18.1 °C 7.8 °C 1016.5 hPa Calm   3.5 km/h 51% 0.0 mm 65 W/m2
18:10 17.7 °C 8.0 °C 1016.5 hPa Calm   3.5 km/h 53% 0.0 mm 44 W/m2
18:15 17.3 °C 7.6 °C 1016.5 hPa Calm   2.6 km/h 53% 0.0 mm 49 W/m2
18:20 17.2 °C 7.8 °C 1016.5 hPa Calm   2.6 km/h 54% 0.0 mm 40 W/m2
18:25 17.1 °C 8.0 °C 1016.8 hPa Calm   2.6 km/h 55% 0.0 mm 39 W/m2
18:30 16.9 °C 8.1 °C 1016.8 hPa Calm   2.6 km/h 56% 0.0 mm 38 W/m2
18:35 16.7 °C 7.9 °C 1016.8 hPa Calm   2.6 km/h 56% 0.0 mm 50 W/m2
18:40 17.3 °C 7.9 °C 1016.8 hPa Calm   2.6 km/h 54% 0.0 mm 56 W/m2
18:45 17.6 °C 7.9 °C 1016.8 hPa Calm   2.6 km/h 53% 0.0 mm 51 W/m2
18:50 17.5 °C 8.1 °C 1016.8 hPa Calm   3.5 km/h 54% 0.0 mm 29 W/m2
18:53 17.0 °C 7.9 °C 1016.8 hPa Calm   3.5 km/h 55% 0.0 mm 24 W/m2
18:58 16.6 °C 8.3 °C 1017.2 hPa Calm   3.5 km/h 58% 0.0 mm 23 W/m2
19:03 16.4 °C 8.4 °C 1016.8 hPa South 1.1 km/h 5.0 km/h 59% 0.0 mm 20 W/m2
19:04 16.3 °C 8.1 °C 1016.8 hPa Calm   5.0 km/h 58% 0.0 mm 19 W/m2
19:09 16.0 °C 8.0 °C 1016.8 hPa Calm   5.0 km/h 59% 0.0 mm 17 W/m2
19:14 15.8 °C 8.6 °C 1016.8 hPa Calm   5.0 km/h 62% 0.0 mm 10 W/m2
19:19 15.6 °C 8.8 °C 1017.2 hPa Calm   3.5 km/h 64% 0.0 mm 6 W/m2
19:24 15.4 °C 9.1 °C 1017.2 hPa Calm   3.5 km/h 66% 0.0 mm 3 W/m2
19:29 15.0 °C 9.2 °C 1017.2 hPa Calm   2.6 km/h 68% 0.0 mm 0 W/m2
19:48 13.9 °C 9.6 °C 1017.5 hPa Calm     75% 0.0 mm 0 W/m2
19:53 13.7 °C 9.6 °C 1017.5 hPa Calm     76% 0.0 mm 0 W/m2
19:58 13.5 °C 9.6 °C 1017.5 hPa Calm     77% 0.0 mm 0 W/m2
20:15 12.9 °C 9.6 °C 1017.8 hPa Calm     80% 0.0 mm 0 W/m2
20:20 12.8 °C 9.6 °C 1018.2 hPa Calm     81% 0.0 mm 0 W/m2
20:25 12.6 °C 9.4 °C 1018.2 hPa Calm     81% 0.0 mm 0 W/m2
20:30 12.4 °C 9.2 °C 1017.8 hPa Calm     81% 0.0 mm 0 W/m2
20:37 12.4 °C 9.2 °C 1018.2 hPa Calm   1.1 km/h 81% 0.0 mm 0 W/m2
20:42 12.3 °C 9.3 °C 1018.2 hPa Calm   2.6 km/h 82% 0.0 mm 0 W/m2
20:47 12.2 °C 9.4 °C 1018.2 hPa Calm   2.6 km/h 83% 0.0 mm 0 W/m2
20:52 12.0 °C 9.2 °C 1018.2 hPa Calm   1.1 km/h 83% 0.0 mm 0 W/m2
20:57 11.8 °C 9.4 °C 1018.2 hPa Calm     85% 0.0 mm 0 W/m2
21:02 11.7 °C 9.4 °C 1018.5 hPa Calm     86% 0.0 mm 0 W/m2
21:07 11.7 °C 9.4 °C 1018.5 hPa Calm   1.1 km/h 86% 0.0 mm 0 W/m2
21:12 11.7 °C 9.6 °C 1018.5 hPa Calm   2.6 km/h 87% 0.0 mm 0 W/m2
21:17 11.6 °C 9.7 °C 1018.2 hPa Calm   3.5 km/h 88% 0.0 mm 0 W/m2
21:22 11.5 °C 9.8 °C 1018.2 hPa Calm   3.5 km/h 89% 0.0 mm 0 W/m2
21:27 11.4 °C 9.8 °C 1018.5 hPa Calm   2.6 km/h 90% 0.0 mm 0 W/m2
21:32 11.2 °C 9.6 °C 1018.5 hPa Calm   1.1 km/h 90% 0.0 mm 0 W/m2
21:37 11.2 °C 9.6 °C 1018.5 hPa Calm     90% 0.0 mm 0 W/m2
21:42 11.2 °C 9.8 °C 1018.5 hPa Calm     91% 0.0 mm 0 W/m2
21:47 11.2 °C 9.8 °C 1018.5 hPa Calm     91% 0.0 mm 0 W/m2
21:52 11.0 °C 9.8 °C 1018.8 hPa Calm     92% 0.0 mm 0 W/m2
21:57 10.9 °C 9.8 °C 1018.8 hPa Calm   2.6 km/h 93% 0.0 mm 0 W/m2
22:02 10.8 °C 9.7 °C 1018.5 hPa North 1.1 km/h 2.6 km/h 93% 0.0 mm 0 W/m2
22:07 10.7 °C 9.8 °C 1018.5 hPa Calm   2.6 km/h 94% 0.0 mm 0 W/m2
22:12 10.6 °C 9.7 °C 1018.8 hPa Calm   2.6 km/h 94% 0.0 mm 0 W/m2
22:17 10.5 °C 9.7 °C 1018.8 hPa Calm   2.6 km/h 95% 0.0 mm 0 W/m2
22:22 10.4 °C 9.6 °C 1018.8 hPa Calm   2.6 km/h 95% 0.0 mm 0 W/m2
22:28 10.4 °C 9.6 °C 1018.8 hPa NW 1.1 km/h 3.5 km/h 95% 0.0 mm 0 W/m2
22:33 10.3 °C 9.6 °C 1018.8 hPa Calm   3.5 km/h 95% 0.0 mm 0 W/m2
22:38 10.2 °C 9.4 °C 1018.8 hPa Calm   3.5 km/h 95% 0.0 mm 0 W/m2
22:43 10.1 °C 9.3 °C 1018.8 hPa Calm   3.5 km/h 95% 0.0 mm 0 W/m2
22:48 10.1 °C 9.3 °C 1018.8 hPa NW 1.1 km/h 2.6 km/h 95% 0.0 mm 0 W/m2
22:53 10.0 °C 9.4 °C 1018.8 hPa NW 2.6 km/h 3.5 km/h 96% 0.0 mm 0 W/m2
22:58 10.0 °C 9.4 °C 1018.8 hPa NW 2.6 km/h 5.0 km/h 96% 0.0 mm 0 W/m2
23:03 10.0 °C 9.4 °C 1018.8 hPa NNW 2.6 km/h 5.0 km/h 96% 0.0 mm 0 W/m2
23:08 10.0 °C 9.4 °C 1018.8 hPa NNW 1.1 km/h 5.0 km/h 96% 0.0 mm 0 W/m2
23:13 10.0 °C 9.6 °C 1018.8 hPa NNW 1.1 km/h 3.5 km/h 97% 0.0 mm 0 W/m2
23:28 9.7 °C 9.4 °C 1018.8 hPa NW 2.6 km/h 5.0 km/h 98% 0.0 mm 0 W/m2
23:33 9.6 °C 9.3 °C 1018.8 hPa NW 1.1 km/h 5.0 km/h 98% 0.0 mm 0 W/m2
23:38 9.6 °C 9.3 °C 1018.8 hPa NW 2.6 km/h 5.0 km/h 98% 0.0 mm 0 W/m2
23:43 9.5 °C 9.2 °C 1018.5 hPa NW 3.5 km/h 6.1 km/h 98% 0.0 mm 0 W/m2
23:48 9.5 °C 9.3 °C 1018.8 hPa NNW 3.5 km/h 6.1 km/h 99% 0.0 mm 0 W/m2
23:53 9.5 °C 9.3 °C 1018.5 hPa NNW 3.5 km/h 7.2 km/h 99% 0.0 mm 0 W/m2
23:58 9.5 °C 9.3 °C 1018.5 hPa NW 2.6 km/h 7.2 km/h 99% 0.0 mm 0 W/m2
Northern Hawkes Bay. New Zealand Historic Data
Compliments of Weather Underground - 2 mb